createdAt,value
2022-09-24T00:04:12.205Z,8.04
2022-09-24T00:14:17.664Z,8.02
2022-09-24T00:24:34.607Z,7.90
2022-09-24T00:34:39.110Z,7.83
2022-09-24T00:44:54.472Z,7.57
2022-09-24T00:54:59.351Z,7.87
2022-09-24T01:05:02.430Z,7.98
2022-09-24T01:15:15.474Z,7.36
2022-09-24T01:25:25.531Z,7.50
2022-09-24T01:35:32.321Z,7.66
2022-09-24T01:45:37.213Z,7.42
2022-09-24T01:55:45.354Z,7.75
2022-09-24T02:05:51.656Z,7.58
2022-09-24T02:16:00.231Z,7.39
2022-09-24T02:26:03.626Z,7.43
2022-09-24T02:36:09.127Z,7.18
2022-09-24T02:46:12.358Z,7.33
2022-09-24T02:56:16.845Z,7.08
2022-09-24T03:06:20.146Z,7.27
2022-09-24T03:16:24.795Z,7.24
2022-09-24T03:26:28.270Z,7.29
2022-09-24T03:36:32.721Z,7.41
2022-09-24T03:46:35.836Z,7.63
2022-09-24T03:56:40.361Z,7.82
2022-09-24T04:06:43.397Z,8.07
2022-09-24T04:16:48.247Z,7.96
2022-09-24T04:26:51.428Z,8.11
2022-09-24T04:36:55.955Z,8.03
2022-09-24T04:47:02.932Z,7.80
2022-09-24T04:57:07.947Z,8.07
2022-09-24T05:07:11.468Z,7.89
2022-09-24T05:17:15.964Z,8.02
2022-09-24T05:27:19.689Z,8.29
2022-09-24T05:37:24.131Z,8.17
2022-09-24T05:47:27.845Z,8.52
2022-09-24T05:57:32.331Z,8.77
2022-09-24T06:07:35.463Z,9.33
2022-09-24T06:17:39.885Z,9.42
2022-09-24T06:27:42.930Z,9.56
2022-09-24T06:37:49.301Z,10.37
2022-09-24T06:47:56.152Z,11.81
2022-09-24T06:58:11.814Z,12.56
2022-09-24T07:08:15.110Z,12.40
2022-09-24T07:18:20.305Z,12.73
2022-09-24T07:28:24.096Z,14.18
2022-09-24T07:38:28.563Z,14.77
2022-09-24T07:48:31.612Z,15.08
2022-09-24T07:58:36.443Z,15.03
2022-09-24T08:08:40.030Z,15.48
2022-09-24T08:18:45.005Z,15.73
2022-09-24T08:28:51.836Z,15.98
2022-09-24T08:38:56.354Z,16.42
2022-09-24T08:49:00.417Z,16.54
2022-09-24T08:59:12.335Z,16.84
2022-09-24T09:09:18.124Z,17.79
2022-09-24T09:19:26.275Z,18.43
2022-09-24T09:29:30.773Z,18.16
2022-09-24T09:39:43.605Z,18.63
2022-09-24T09:49:48.836Z,19.53
2022-09-24T09:59:55.086Z,19.54
2022-09-24T10:10:03.347Z,19.50
2022-09-24T10:20:15.744Z,19.53
2022-09-24T10:30:37.735Z,19.01
2022-09-24T10:40:42.106Z,19.95
2022-09-24T10:50:48.959Z,20.28
2022-09-24T11:01:01.238Z,20.65
2022-09-24T11:11:14.670Z,20.58
2022-09-24T11:21:30.030Z,21.33
2022-09-24T11:31:37.805Z,21.59
2022-09-24T11:41:50.274Z,20.82
2022-09-24T11:51:56.316Z,21.74
2022-09-24T12:02:04.631Z,21.00
2022-09-24T12:12:10.121Z,20.95
2022-09-24T12:22:14.809Z,21.55
2022-09-24T12:32:38.480Z,21.70
2022-09-24T12:42:45.017Z,21.52
2022-09-24T12:52:48.180Z,21.40
2022-09-24T13:02:55.186Z,21.58
2022-09-24T13:12:59.996Z,21.38
2022-09-24T13:23:15.887Z,20.83
2022-09-24T13:33:24.043Z,20.79
2022-09-24T13:43:38.163Z,20.91
2022-09-24T13:53:44.385Z,21.10
2022-09-24T14:03:55.847Z,21.28
2022-09-24T14:13:59.237Z,21.36
2022-09-24T14:24:07.236Z,20.99
2022-09-24T14:34:24.579Z,21.06
2022-09-24T14:44:31.128Z,20.79
2022-09-24T14:54:35.649Z,20.73
2022-09-24T15:04:40.091Z,20.68
2022-09-24T15:14:43.204Z,20.34
2022-09-24T15:24:47.634Z,20.30
2022-09-24T15:34:50.697Z,20.31
2022-09-24T15:44:55.421Z,20.20
2022-09-24T15:55:01.304Z,19.82
2022-09-24T16:05:11.134Z,19.75
2022-09-24T16:15:15.837Z,19.58
2022-09-24T16:25:20.403Z,19.53
2022-09-24T16:35:23.550Z,19.44
2022-09-24T16:45:28.342Z,19.32
2022-09-24T16:55:31.542Z,19.20
2022-09-24T17:05:40.772Z,18.98
2022-09-24T17:15:43.976Z,18.70
2022-09-24T17:25:48.560Z,18.37
2022-09-24T17:35:54.912Z,18.08
2022-09-24T17:46:03.008Z,17.91
2022-09-24T17:56:08.184Z,17.77
2022-09-24T18:06:14.792Z,17.69
2022-09-24T18:16:19.058Z,17.46
2022-09-24T18:26:24.828Z,17.31
2022-09-24T18:36:27.949Z,17.22
2022-09-24T18:46:33.185Z,17.10
2022-09-24T18:56:37.358Z,16.90
2022-09-24T19:06:43.313Z,16.64
2022-09-24T19:16:47.129Z,16.54
2022-09-24T19:26:52.329Z,16.49
2022-09-24T19:36:56.161Z,16.36
2022-09-24T19:47:00.589Z,16.42
2022-09-24T19:57:03.698Z,16.36
2022-09-24T20:07:08.500Z,16.33
2022-09-24T20:17:11.750Z,16.23
2022-09-24T20:27:33.986Z,15.90
2022-09-24T20:37:36.849Z,15.78
2022-09-24T20:47:42.233Z,15.67
2022-09-24T20:57:45.333Z,15.59
2022-09-24T21:07:49.952Z,15.56
2022-09-24T21:18:18.315Z,15.46
2022-09-24T21:28:17.889Z,15.41
2022-09-24T21:38:20.965Z,15.25
2022-09-24T21:48:25.992Z,15.19
2022-09-24T21:58:29.802Z,15.20
2022-09-24T22:08:34.405Z,15.09
2022-09-24T22:18:38.113Z,15.05
2022-09-24T22:28:43.506Z,15.03
2022-09-24T22:38:47.816Z,14.83
2022-09-24T22:48:52.245Z,14.63
2022-09-24T22:58:56.929Z,14.51
2022-09-24T23:09:02.087Z,14.31
2022-09-24T23:19:06.659Z,14.09
2022-09-24T23:29:12.514Z,13.93
2022-09-24T23:39:15.823Z,13.88
2022-09-24T23:49:20.302Z,13.94
2022-09-24T23:59:23.335Z,13.91
